Time;durP1;ratioP1;P1;durP2;ratioP2;P2;SDS_P1;SDS_P2;PMS_P1;PMS_P2;Temp;Humidity;BMP_temperature;BMP_pressure;BME280_temperature;BME280_humidity;BME280_pressure;Samples;Min_cycle;Max_cycle;Signal;HPM_P1;HPM_P2
2022/10/15 00:08:15;;;;;;;12.20;2.47;;;13.50;99.90;;;;;;20922672;28;20036;-79
2022/10/15 00:18:16;;;;;;;2.27;1.80;;;13.50;99.90;;;;;;20922455;28;20052;-78
2022/10/15 00:28:17;;;;;;;3.07;1.83;;;13.50;99.90;;;;;;20918981;28;20044;-79
2022/10/15 00:38:17;;;;;;;1.87;1.30;;;13.60;99.90;;;;;;20902753;28;20045;-79
2022/10/15 00:48:18;;;;;;;5.87;2.40;;;13.70;99.90;;;;;;20923924;28;20029;-79
2022/10/15 00:58:27;;;;;;;7.57;5.17;;;13.70;99.90;;;;;;20905828;28;20041;-79
2022/10/15 01:08:29;;;;;;;7.75;4.18;;;13.70;99.90;;;;;;20929468;28;20040;-79
2022/10/15 01:18:46;;;;;;;17.53;5.33;;;13.80;99.90;;;;;;20905637;28;20396;-79
2022/10/15 01:29:15;;;;;;;181.85;12.00;;;13.80;99.90;;;;;;21073683;22;20130;-80
2022/10/15 01:39:24;;;;;;;10.45;6.05;;;13.80;99.90;;;;;;21183662;28;20134;-80
2022/10/15 01:49:31;;;;;;;11.50;5.25;;;13.80;99.90;;;;;;21181241;28;20043;-80
2022/10/15 01:59:36;;;;;;;8.65;4.65;;;13.80;99.90;;;;;;21183613;28;20071;-80
2022/10/15 02:09:48;;;;;;;3.83;1.53;;;13.90;99.90;;;;;;21177581;28;20036;-78
2022/10/15 02:20:14;;;;;;;3.92;2.40;;;13.90;99.90;;;;;;21160217;28;20063;-80
2022/10/15 02:30:17;;;;;;;3.75;2.10;;;14.00;99.90;;;;;;21150483;28;20039;-81
2022/10/15 02:40:21;;;;;;;7.72;2.17;;;13.90;99.90;;;;;;21153581;28;20043;-80
2022/10/15 02:50:22;;;;;;;5.10;1.65;;;14.00;99.90;;;;;;21171536;28;20405;-81
2022/10/15 03:00:23;;;;;;;5.23;2.00;;;14.00;99.90;;;;;;21161748;28;20039;-80
2022/10/15 03:10:24;;;;;;;6.83;1.80;;;14.10;99.90;;;;;;21170474;28;20035;-79
2022/10/15 03:20:25;;;;;;;5.07;2.10;;;14.20;99.90;;;;;;21162728;28;20047;-80
2022/10/15 03:30:26;;;;;;;9.40;3.55;;;14.20;99.90;;;;;;21163975;28;20043;-80
2022/10/15 03:40:28;;;;;;;4.35;2.38;;;14.20;99.90;;;;;;21157730;28;20654;-79
2022/10/15 03:50:33;;;;;;;3.00;1.65;;;14.20;99.90;;;;;;21084403;28;20048;-79
2022/10/15 04:00:36;;;;;;;2.63;1.40;;;14.40;99.90;;;;;;21039612;28;20033;-79
2022/10/15 04:10:37;;;;;;;2.40;1.20;;;14.50;99.90;;;;;;20968673;28;20040;-80
2022/10/15 04:20:38;;;;;;;4.80;0.90;;;14.60;99.90;;;;;;20985374;28;20398;-80
2022/10/15 04:30:46;;;;;;;2.42;1.00;;;14.60;99.90;;;;;;20984839;28;20041;-79
2022/10/15 04:40:47;;;;;;;;;;;14.60;99.90;;;;;;20983448;28;20572;-79
2022/10/15 04:50:48;;;;;;;1.70;0.90;;;14.70;99.90;;;;;;21001976;28;19913;-80
2022/10/15 05:00:54;;;;;;;2.75;1.20;;;14.80;99.90;;;;;;21054413;28;20031;-78
2022/10/15 05:11:11;;;;;;;3.83;1.45;;;14.80;99.90;;;;;;21093416;28;20036;-80
2022/10/15 05:21:13;;;;;;;5.45;1.85;;;14.70;99.90;;;;;;21166547;28;20060;-81
2022/10/15 05:31:18;;;;;;;1.23;0.80;;;14.60;99.90;;;;;;21128916;28;20036;-79
2022/10/15 05:41:20;;;;;;;3.15;0.77;;;14.60;99.90;;;;;;21145165;28;20513;-81
2022/10/15 05:51:22;;;;;;;3.88;0.63;;;14.50;99.90;;;;;;21176146;28;20122;-81
2022/10/15 06:01:25;;;;;;;3.90;0.55;;;14.50;99.90;;;;;;21160120;28;20043;-81
2022/10/15 06:11:26;;;;;;;4.27;0.70;;;14.60;99.90;;;;;;21140542;28;20115;-80
2022/10/15 06:21:27;;;;;;;2.37;1.33;;;14.50;99.90;;;;;;21174880;28;20036;-80
2022/10/15 06:31:27;;;;;;;5.67;1.63;;;14.50;99.90;;;;;;21101320;28;20048;-79
2022/10/15 06:41:28;;;;;;;3.27;0.83;;;14.60;99.90;;;;;;21096057;28;20198;-80
2022/10/15 06:51:29;;;;;;;2.00;1.10;;;14.60;99.90;;;;;;21095082;28;20032;-81
2022/10/15 07:01:30;;;;;;;4.87;1.03;;;14.80;99.90;;;;;;21074283;28;20040;-81
2022/10/15 07:11:31;;;;;;;5.87;1.00;;;15.10;99.90;;;;;;21091985;28;20043;-81
2022/10/15 07:21:31;;;;;;;3.97;2.23;;;15.80;99.90;;;;;;21078451;28;20105;-79
2022/10/15 07:31:33;;;;;;;3.53;2.10;;;16.00;99.90;;;;;;21099649;22;20044;-81
2022/10/15 07:41:34;;;;;;;;;;;16.10;99.90;;;;;;21127475;28;20089;-77
2022/10/15 07:51:34;;;;;;;2.43;1.27;;;16.90;99.90;;;;;;21179612;28;19949;-78
2022/10/15 08:01:35;;;;;;;2.17;0.73;;;16.80;99.90;;;;;;21076567;28;20060;-81
2022/10/15 08:11:36;;;;;;;3.23;1.40;;;17.20;99.90;;;;;;21084205;28;20039;-80
2022/10/15 08:21:37;;;;;;;1.63;0.93;;;17.00;99.90;;;;;;21071652;28;20044;-77
2022/10/15 08:31:39;;;;;;;1.13;0.50;;;17.80;99.90;;;;;;21061037;28;20123;-78
2022/10/15 08:41:39;;;;;;;1.10;0.50;;;18.70;99.90;;;;;;21075419;28;20075;-77
2022/10/15 08:51:47;;;;;;;2.57;0.50;;;18.80;99.90;;;;;;21057101;28;20406;-77
2022/10/15 09:01:56;;;;;;;3.85;0.40;;;18.30;99.90;;;;;;21035288;28;20040;-79
2022/10/15 09:12:28;;;;;;;0.70;0.50;;;18.10;99.90;;;;;;20977549;28;20123;-78
2022/10/15 09:22:32;;;;;;;0.60;0.30;;;17.90;99.90;;;;;;20962215;28;20035;-78
2022/10/15 09:32:57;;;;;;;1.13;0.38;;;17.60;99.90;;;;;;21007080;28;20044;-78
2022/10/15 09:42:59;;;;;;;1.40;0.50;;;17.50;99.90;;;;;;21012165;28;20086;-75
2022/10/15 09:53:58;;;;;;;0.77;0.43;;;17.40;99.90;;;;;;21005483;28;20040;-79
2022/10/15 10:04:17;;;;;;;15.73;5.25;;;17.30;99.90;;;;;;20933125;28;20135;-76
2022/10/15 10:14:32;;;;;;;0.80;0.50;;;17.30;99.90;;;;;;21007281;28;20078;-76
2022/10/15 10:24:33;;;;;;;1.70;0.60;;;17.50;99.90;;;;;;21004905;28;20505;-76
2022/10/15 10:34:34;;;;;;;10.47;4.13;;;17.40;99.90;;;;;;21004044;28;20032;-77
2022/10/15 10:44:34;;;;;;;2.60;0.40;;;17.60;99.90;;;;;;21006713;28;20064;-75
2022/10/15 10:54:36;;;;;;;0.47;0.40;;;17.70;99.90;;;;;;21030449;28;20039;-77
2022/10/15 11:04:38;;;;;;;1.40;0.45;;;17.50;99.90;;;;;;21138430;28;20117;-77
2022/10/15 11:14:41;;;;;;;2.53;0.75;;;17.60;99.90;;;;;;21133776;28;20047;-77
2022/10/15 11:24:56;;;;;;;3.78;0.65;;;17.50;99.90;;;;;;21109480;28;20051;-77
2022/10/15 11:35:15;;;;;;;1.70;0.50;;;17.40;99.90;;;;;;21069790;28;20041;-77
2022/10/15 11:45:25;;;;;;;1.20;0.60;;;17.70;99.90;;;;;;21034286;28;20027;-77
2022/10/15 11:55:49;;;;;;;1.45;0.50;;;18.40;99.90;;;;;;21031630;28;20513;-76
2022/10/15 12:06:04;;;;;;;3.53;0.65;;;18.60;99.90;;;;;;20983617;28;20059;-76
2022/10/15 12:16:24;;;;;;;0.93;0.60;;;18.90;99.90;;;;;;20968150;28;20040;-77
2022/10/15 12:26:26;;;;;;;2.15;0.40;;;19.60;99.90;;;;;;21047787;28;20036;-75
2022/10/15 12:36:29;;;;;;;1.63;0.40;;;20.00;99.90;;;;;;21067704;28;20036;-77
2022/10/15 12:46:40;;;;;;;1.95;0.30;;;20.70;99.90;;;;;;21086747;28;20059;-77
2022/10/15 12:56:41;;;;;;;4.28;1.23;;;20.60;99.90;;;;;;21132595;28;20039;-77
2022/10/15 13:06:42;;;;;;;5.53;0.77;;;20.90;99.90;;;;;;21160835;28;20043;-76
2022/10/15 13:16:45;;;;;;;0.90;0.38;;;21.20;99.90;;;;;;21167112;28;20489;-77
2022/10/15 13:26:46;;;;;;;7.15;2.50;;;21.90;99.90;;;;;;21143204;22;20523;-78
2022/10/15 13:36:47;;;;;;;;;;;22.10;99.90;;;;;;21239821;27;20047;-77
2022/10/15 13:46:48;;;;;;;3.35;0.40;;;20.90;99.90;;;;;;21238095;27;20453;-75
2022/10/15 13:56:54;;;;;;;1.52;0.63;;;20.40;99.90;;;;;;21191593;27;20035;-74
2022/10/15 14:07:00;;;;;;;1.02;0.50;;;20.40;99.90;;;;;;21139690;28;20040;-74
2022/10/15 14:17:25;;;;;;;21.00;18.60;;;20.00;99.90;;;;;;21165012;28;20040;-75
2022/10/15 14:27:27;;;;;;;5.00;2.90;;;20.00;99.90;;;;;;21168092;28;20044;-75
2022/10/15 14:37:41;;;;;;;53.15;38.55;;;18.60;99.90;;;;;;21167641;28;20048;-76
2022/10/15 14:47:48;;;;;;;18.88;14.57;;;19.00;99.90;;;;;;21179026;27;20036;-75
2022/10/15 14:57:50;;;;;;;61.28;45.20;;;19.30;99.90;;;;;;21193287;27;20118;-75
2022/10/15 15:07:51;;;;;;;10.90;3.80;;;19.60;99.90;;;;;;21166975;27;20038;-75
2022/10/15 15:17:52;;;;;;;10.40;4.03;;;20.60;99.90;;;;;;21211190;27;20035;-75
2022/10/15 15:27:52;;;;;;;6.93;3.17;;;20.90;99.90;;;;;;21182945;27;20331;-75
2022/10/15 15:37:53;;;;;;;58.33;39.80;;;22.00;99.90;;;;;;21164284;27;20123;-76
2022/10/15 15:48:00;;;;;;;5.47;1.83;;;21.30;99.90;;;;;;21188151;27;20369;-76
2022/10/15 15:58:01;;;;;;;20.05;17.95;;;19.90;99.90;;;;;;21175449;27;20047;-77
2022/10/15 16:08:02;;;;;;;7.90;1.70;;;19.30;99.90;;;;;;21211159;27;20031;-76
2022/10/15 16:18:03;;;;;;;4.60;1.40;;;18.80;99.90;;;;;;21207836;27;20472;-76
2022/10/15 16:28:04;;;;;;;8.90;2.20;;;18.10;99.90;;;;;;21198797;27;20042;-76
2022/10/15 16:38:05;;;;;;;20.60;9.93;;;18.00;99.90;;;;;;21231927;27;20505;-80
2022/10/15 16:48:06;;;;;;;14.83;11.90;;;17.20;99.90;;;;;;21269654;27;20035;-79
2022/10/15 16:58:07;;;;;;;42.00;18.90;;;16.80;99.90;;;;;;21085338;28;20365;-81
2022/10/15 17:08:08;;;;;;;398.70;247.17;;;16.70;99.90;;;;;;21058102;28;20040;-80
2022/10/15 17:18:09;;;;;;;206.27;143.10;;;16.30;99.90;;;;;;21071714;28;20063;-81
2022/10/15 17:28:09;;;;;;;31.67;7.07;;;15.90;99.90;;;;;;21163412;28;20451;-81
2022/10/15 17:38:10;;;;;;;14.53;5.93;;;15.30;99.90;;;;;;21246628;28;20442;-80
2022/10/15 17:48:11;;;;;;;8.77;2.70;;;15.60;99.90;;;;;;21276323;27;20039;-81
2022/10/15 17:58:14;;;;;;;;;;;15.30;99.90;;;;;;21170649;28;20043;-81
2022/10/15 18:08:16;;;;;;;6.07;2.73;;;14.60;99.90;;;;;;21217876;27;19913;-81
2022/10/15 18:18:16;;;;;;;;;;;14.20;99.90;;;;;;21242449;27;20039;-81
2022/10/15 18:28:18;;;;;;;12.00;3.43;;;14.20;99.90;;;;;;21103624;28;20019;-80
2022/10/15 18:38:19;;;;;;;;;;;14.10;99.90;;;;;;21104893;28;20040;-80
2022/10/15 18:48:20;;;;;;;9.60;2.10;;;13.80;99.90;;;;;;21162971;27;20400;-81
2022/10/15 18:58:20;;;;;;;5.70;2.00;;;13.60;99.90;;;;;;21196782;27;20208;-80
2022/10/15 19:08:21;;;;;;;8.13;3.47;;;13.50;99.90;;;;;;21270216;27;20039;-80
2022/10/15 19:18:22;;;;;;;9.97;4.13;;;13.50;99.90;;;;;;21228718;27;20135;-80
2022/10/15 19:28:24;;;;;;;9.57;3.37;;;13.50;99.90;;;;;;21175713;28;20050;-81
2022/10/15 19:38:25;;;;;;;6.10;1.83;;;13.50;99.90;;;;;;21170815;22;20090;-77
2022/10/15 19:48:26;;;;;;;7.33;1.60;;;13.20;99.90;;;;;;21090360;28;20086;-77
2022/10/15 19:58:27;;;;;;;15.97;2.50;;;13.30;99.90;;;;;;21058665;28;20059;-77
2022/10/15 20:08:30;;;;;;;17.45;4.55;;;13.10;99.90;;;;;;21076191;28;20043;-77
2022/10/15 20:18:31;;;;;;;3.00;2.15;;;13.20;99.90;;;;;;21057088;28;20036;-77
2022/10/15 20:28:35;;;;;;;11.43;3.47;;;13.40;99.90;;;;;;21056822;28;20040;-78
2022/10/15 20:38:36;;;;;;;6.80;2.53;;;13.20;99.90;;;;;;21074333;28;20119;-78
2022/10/15 20:48:40;;;;;;;6.07;2.47;;;13.00;99.90;;;;;;21094228;28;20164;-77
2022/10/15 20:58:41;;;;;;;5.28;1.88;;;12.80;99.90;;;;;;21077774;28;20036;-78
2022/10/15 21:08:41;;;;;;;3.70;1.77;;;12.80;99.90;;;;;;21072065;28;20036;-78
2022/10/15 21:18:42;;;;;;;3.27;1.53;;;12.60;99.90;;;;;;21133974;28;20122;-77
2022/10/15 21:28:46;;;;;;;4.93;3.13;;;12.60;99.90;;;;;;21070489;28;20048;-78
2022/10/15 21:38:52;;;;;;;9.80;2.65;;;12.80;99.90;;;;;;21087111;28;20044;-77
2022/10/15 21:48:53;;;;;;;5.68;2.67;;;13.00;99.90;;;;;;21126431;28;20052;-78
2022/10/15 21:58:54;;;;;;;5.50;2.90;;;13.10;99.90;;;;;;21087629;28;20040;-77
2022/10/15 22:08:55;;;;;;;11.03;3.90;;;13.00;99.90;;;;;;21084840;28;20060;-77
2022/10/15 22:18:57;;;;;;;9.43;3.10;;;13.00;99.90;;;;;;21066000;28;20075;-77
2022/10/15 22:28:59;;;;;;;;;;;12.90;99.90;;;;;;21165315;28;20040;-77
2022/10/15 22:39:03;;;;;;;7.00;1.90;;;13.00;99.90;;;;;;21166485;28;20365;-77
2022/10/15 22:49:06;;;;;;;5.90;1.80;;;13.10;99.90;;;;;;21122643;28;20052;-77
2022/10/15 22:59:07;;;;;;;4.22;1.70;;;13.20;99.90;;;;;;21078706;28;20036;-77
2022/10/15 23:09:09;;;;;;;3.67;1.67;;;13.10;99.90;;;;;;21060779;28;20482;-77
2022/10/15 23:19:20;;;;;;;3.13;1.10;;;13.10;99.90;;;;;;21043706;28;20767;-77
2022/10/15 23:29:25;;;;;;;6.82;1.83;;;13.00;99.90;;;;;;21074906;28;20066;-78
2022/10/15 23:39:26;;;;;;;6.72;1.95;;;13.10;99.90;;;;;;21076444;28;20036;-78
2022/10/15 23:49:27;;;;;;;3.88;2.00;;;13.10;99.90;;;;;;21056784;28;20028;-78
2022/10/15 23:59:28;;;;;;;5.70;1.60;;;13.10;99.90;;;;;;21075447;28;20028;-78
